sensor_id;sensor_type;location;lat;lon;timestamp;pressure;altitude;pressure_sealevel;temperature;humidity
14041;BME280;7095;51.388;6.196;2023-03-22T00:00:09;56717.31;;;-145.32;100.00
14041;BME280;7095;51.388;6.196;2023-03-22T00:02:42;56796.91;;;-145.32;100.00
14041;BME280;7095;51.388;6.196;2023-03-22T00:05:11;56788.94;;;-145.32;100.00
14041;BME280;7095;51.388;6.196;2023-03-22T00:07:40;56753.13;;;-145.32;100.00
14041;BME280;7095;51.388;6.196;2023-03-22T00:10:09;56812.84;;;-145.32;100.00
14041;BME280;7095;51.388;6.196;2023-03-22T00:12:38;56950.16;;;-145.32;100.00
14041;BME280;7095;51.388;6.196;2023-03-22T00:15:08;57103.38;;;-145.32;100.00
14041;BME280;7095;51.388;6.196;2023-03-22T00:17:41;57093.44;;;-145.32;100.00
14041;BME280;7095;51.388;6.196;2023-03-22T00:20:14;57037.72;;;-145.32;100.00
14041;BME280;7095;51.388;6.196;2023-03-22T00:22:46;57163.09;;;-145.32;100.00
14041;BME280;7095;51.388;6.196;2023-03-22T00:25:16;57226.78;;;-145.32;100.00
14041;BME280;7095;51.388;6.196;2023-03-22T00:27:44;57240.72;;;-145.32;100.00
14041;BME280;7095;51.388;6.196;2023-03-22T00:30:13;57360.13;;;-145.32;100.00
14041;BME280;7095;51.388;6.196;2023-03-22T00:32:45;57378.03;;;-145.32;100.00
14041;BME280;7095;51.388;6.196;2023-03-22T00:35:13;57497.47;;;-145.32;100.00
14041;BME280;7095;51.388;6.196;2023-03-22T00:37:43;57447.69;;;-145.32;100.00
14041;BME280;7095;51.388;6.196;2023-03-22T00:40:12;57473.56;;;-145.32;100.00
14041;BME280;7095;51.388;6.196;2023-03-22T00:42:44;57487.50;;;-145.32;100.00
14041;BME280;7095;51.388;6.196;2023-03-22T00:45:13;57479.56;;;-145.32;100.00
14041;BME280;7095;51.388;6.196;2023-03-22T00:47:41;57415.84;;;-145.32;100.00
14041;BME280;7095;51.388;6.196;2023-03-22T00:50:11;57479.56;;;-145.32;100.00
14041;BME280;7095;51.388;6.196;2023-03-22T00:52:40;57421.81;;;-145.32;100.00
14041;BME280;7095;51.388;6.196;2023-03-22T00:55:09;57525.31;;;-145.32;100.00
14041;BME280;7095;51.388;6.196;2023-03-22T00:57:37;57622.84;;;-145.32;100.00
14041;BME280;7095;51.388;6.196;2023-03-22T01:00:07;57901.53;;;-145.32;100.00
14041;BME280;7095;51.388;6.196;2023-03-22T01:02:39;58166.31;;;-145.32;100.00
14041;BME280;7095;51.388;6.196;2023-03-22T01:05:14;58377.34;;;-145.32;100.00
14041;BME280;7095;51.388;6.196;2023-03-22T01:07:43;58357.44;;;-145.32;100.00
14041;BME280;7095;51.388;6.196;2023-03-22T01:10:12;58249.91;;;-145.32;100.00
14041;BME280;7095;51.388;6.196;2023-03-22T01:12:40;58182.22;;;-145.32;100.00
14041;BME280;7095;51.388;6.196;2023-03-22T01:15:09;58216.06;;;-145.32;100.00
14041;BME280;7095;51.388;6.196;2023-03-22T01:17:39;58230.00;;;-145.32;100.00
14041;BME280;7095;51.388;6.196;2023-03-22T01:20:08;58255.91;;;-145.32;100.00
14041;BME280;7095;51.388;6.196;2023-03-22T01:22:39;58377.34;;;-145.32;100.00
14041;BME280;7095;51.388;6.196;2023-03-22T01:25:08;58449.00;;;-145.32;100.00
14041;BME280;7095;51.388;6.196;2023-03-22T01:27:37;58510.72;;;-145.32;100.00
14041;BME280;7095;51.388;6.196;2023-03-22T01:30:07;58391.28;;;-145.32;100.00
14041;BME280;7095;51.388;6.196;2023-03-22T01:32:37;58620.25;;;-145.32;100.00
14041;BME280;7095;51.388;6.196;2023-03-22T01:35:07;58687.94;;;-145.32;100.00
14041;BME280;7095;51.388;6.196;2023-03-22T01:37:38;58873.13;;;-145.32;100.00
14041;BME280;7095;51.388;6.196;2023-03-22T01:40:09;58958.75;;;-145.32;100.00
14041;BME280;7095;51.388;6.196;2023-03-22T01:42:39;59116.06;;;-145.32;100.00
14041;BME280;7095;51.388;6.196;2023-03-22T01:45:34;59341.09;;;-145.32;100.00
14041;BME280;7095;51.388;6.196;2023-03-22T01:51:01;59739.41;;;-145.32;100.00
14041;BME280;7095;51.388;6.196;2023-03-22T01:53:42;59882.81;;;-145.32;100.00
14041;BME280;7095;51.388;6.196;2023-03-22T01:56:12;59898.75;;;-145.32;100.00
14041;BME280;7095;51.388;6.196;2023-03-22T01:58:41;60111.88;;;-145.32;100.00
14041;BME280;7095;51.388;6.196;2023-03-22T02:01:12;60177.59;;;-145.32;100.00
14041;BME280;7095;51.388;6.196;2023-03-22T02:03:50;60305.09;;;-145.32;100.00
14041;BME280;7095;51.388;6.196;2023-03-22T02:06:22;60805.13;;;-145.32;100.00
14041;BME280;7095;51.388;6.196;2023-03-22T02:09:03;60542.16;;;-145.32;100.00
14041;BME280;7095;51.388;6.196;2023-03-22T02:11:34;60908.75;;;-145.32;100.00
14041;BME280;7095;51.388;6.196;2023-03-22T02:14:30;61454.72;;;-145.32;100.00
14041;BME280;7095;51.388;6.196;2023-03-22T02:17:30;61843.31;;;-145.32;100.00
14041;BME280;7095;51.388;6.196;2023-03-22T02:23:33;62628.63;;;-145.32;100.00
14041;BME280;7095;51.388;6.196;2023-03-22T02:26:33;63418.09;;;-145.32;100.00
14041;BME280;7095;51.388;6.196;2023-03-22T02:29:13;63406.16;;;-145.32;100.00
14041;BME280;7095;51.388;6.196;2023-03-22T02:32:03;63717.19;;;-145.32;100.00
14041;BME280;7095;51.388;6.196;2023-03-22T02:35:11;64664.50;;;-145.32;100.00
14041;BME280;7095;51.388;6.196;2023-03-22T02:38:13;65552.22;;;-145.32;100.00
14041;BME280;7095;51.388;6.196;2023-03-22T02:40:49;66194.72;;;-145.32;100.00
14041;BME280;7095;51.388;6.196;2023-03-22T02:43:27;66547.94;;;-145.32;100.00
14041;BME280;7095;51.388;6.196;2023-03-22T02:46:03;67003.00;;;-145.32;100.00
14041;BME280;7095;51.388;6.196;2023-03-22T02:48:39;67771.53;;;-145.32;100.00
14041;BME280;7095;51.388;6.196;2023-03-22T02:51:13;68080.97;;;-145.32;100.00
14041;BME280;7095;51.388;6.196;2023-03-22T02:53:50;69139.34;;;-145.32;100.00
14041;BME280;7095;51.388;6.196;2023-03-22T02:56:24;69616.72;;;-145.32;100.00
14041;BME280;7095;51.388;6.196;2023-03-22T02:58:55;70639.59;;;-145.32;100.00
14041;BME280;7095;51.388;6.196;2023-03-22T03:01:27;71442.94;;;-145.32;100.00
14041;BME280;7095;51.388;6.196;2023-03-22T03:03:58;71954.59;;;-145.32;100.00
14041;BME280;7095;51.388;6.196;2023-03-22T03:06:33;71954.59;;;-145.32;100.00
14041;BME280;7095;51.388;6.196;2023-03-22T03:09:06;71954.59;;;-145.32;100.00
14041;BME280;7095;51.388;6.196;2023-03-22T03:11:36;72466.34;;;-145.32;100.00
14041;BME280;7095;51.388;6.196;2023-03-22T03:14:04;72466.34;;;-145.32;100.00
14041;BME280;7095;51.388;6.196;2023-03-22T03:16:33;71954.59;;;-145.32;100.00
14041;BME280;7095;51.388;6.196;2023-03-22T03:19:07;71442.94;;;-145.32;100.00
14041;BME280;7095;51.388;6.196;2023-03-22T03:21:43;70319.91;;;-145.32;100.00
14041;BME280;7095;51.388;6.196;2023-03-22T03:24:19;69399.00;;;-145.32;100.00
14041;BME280;7095;51.388;6.196;2023-03-22T03:26:55;68763.91;;;-145.32;100.00
14041;BME280;7095;51.388;6.196;2023-03-22T03:29:32;68075.00;;;-145.32;100.00
14041;BME280;7095;51.388;6.196;2023-03-22T03:32:06;67963.19;;;-145.32;100.00
14041;BME280;7095;51.388;6.196;2023-03-22T03:34:41;68049.03;;;-145.32;100.00
14041;BME280;7095;51.388;6.196;2023-03-22T03:37:18;67488.03;;;-145.32;100.00
14041;BME280;7095;51.388;6.196;2023-03-22T03:39:53;66825.34;;;-145.32;100.00
14041;BME280;7095;51.388;6.196;2023-03-22T03:42:45;66294.50;;;-145.32;100.00
14041;BME280;7095;51.388;6.196;2023-03-22T03:45:17;66344.38;;;-145.32;100.00
14041;BME280;7095;51.388;6.196;2023-03-22T03:47:49;66697.63;;;-145.32;100.00
14041;BME280;7095;51.388;6.196;2023-03-22T03:50:24;66144.81;;;-145.32;100.00
14041;BME280;7095;51.388;6.196;2023-03-22T03:52:55;65961.25;;;-145.32;100.00
14041;BME280;7095;51.388;6.196;2023-03-22T03:55:24;66362.34;;;-145.32;100.00
14041;BME280;7095;51.388;6.196;2023-03-22T03:57:55;66286.50;;;-145.32;100.00
14041;BME280;7095;51.388;6.196;2023-03-22T04:00:23;66374.31;;;-145.32;100.00
14041;BME280;7095;51.388;6.196;2023-03-22T04:03:21;66430.19;;;-145.32;100.00
14041;BME280;7095;51.388;6.196;2023-03-22T04:06:07;65695.88;;;-145.32;100.00
14041;BME280;7095;51.388;6.196;2023-03-22T04:08:38;66192.72;;;-145.32;100.00
14041;BME280;7095;51.388;6.196;2023-03-22T04:11:08;65923.34;;;-145.32;100.00
14041;BME280;7095;51.388;6.196;2023-03-22T04:13:39;66114.91;;;-145.32;100.00
14041;BME280;7095;51.388;6.196;2023-03-22T04:16:12;65675.94;;;-145.32;100.00
14041;BME280;7095;51.388;6.196;2023-03-22T04:18:40;64871.97;;;-145.32;100.00
14041;BME280;7095;51.388;6.196;2023-03-22T04:21:09;64596.69;;;-145.32;100.00
14041;BME280;7095;51.388;6.196;2023-03-22T04:23:58;64311.47;;;-145.32;100.00
14041;BME280;7095;51.388;6.196;2023-03-22T04:26:31;64072.16;;;-145.32;100.00
14041;BME280;7095;51.388;6.196;2023-03-22T04:29:17;63968.47;;;-145.32;100.00
14041;BME280;7095;51.388;6.196;2023-03-22T04:31:49;63747.13;;;-145.32;100.00
14041;BME280;7095;51.388;6.196;2023-03-22T04:34:27;63162.91;;;-145.32;100.00
14041;BME280;7095;51.388;6.196;2023-03-22T04:36:59;62955.56;;;-145.32;100.00
14041;BME280;7095;51.388;6.196;2023-03-22T04:39:37;62973.50;;;-145.32;100.00
14041;BME280;7095;51.388;6.196;2023-03-22T04:42:32;62865.84;;;-145.32;100.00
14041;BME280;7095;51.388;6.196;2023-03-22T04:45:12;62461.19;;;-145.32;100.00
14041;BME280;7095;51.388;6.196;2023-03-22T04:47:45;62277.81;;;-145.32;100.00
14041;BME280;7095;51.388;6.196;2023-03-22T04:50:14;61863.25;;;-145.32;100.00
14041;BME280;7095;51.388;6.196;2023-03-22T04:52:49;61759.59;;;-145.32;100.00
14041;BME280;7095;51.388;6.196;2023-03-22T04:55:18;61153.81;;;-145.32;100.00
14041;BME280;7095;51.388;6.196;2023-03-22T04:57:47;61058.19;;;-145.32;100.00
14041;BME280;7095;51.388;6.196;2023-03-22T05:00:19;60639.78;;;-145.32;100.00
14041;BME280;7095;51.388;6.196;2023-03-22T05:02:48;60655.72;;;-145.32;100.00
14041;BME280;7095;51.388;6.196;2023-03-22T05:05:25;60693.56;;;-145.32;100.00
14041;BME280;7095;51.388;6.196;2023-03-22T05:07:54;60562.09;;;-145.32;100.00
14041;BME280;7095;51.388;6.196;2023-03-22T05:10:24;60376.81;;;-145.32;100.00
14041;BME280;7095;51.388;6.196;2023-03-22T05:12:53;60195.53;;;-145.32;100.00
14041;BME280;7095;51.388;6.196;2023-03-22T05:15:26;60131.78;;;-145.32;100.00
14041;BME280;7095;51.388;6.196;2023-03-22T05:17:56;60201.50;;;-145.32;100.00
14041;BME280;7095;51.388;6.196;2023-03-22T05:20:25;60165.66;;;-145.32;100.00
14041;BME280;7095;51.388;6.196;2023-03-22T05:23:09;60199.53;;;-145.32;100.00
14041;BME280;7095;51.388;6.196;2023-03-22T05:25:40;60271.22;;;-145.32;100.00
14041;BME280;7095;51.388;6.196;2023-03-22T05:28:15;60169.63;;;-145.32;100.00
14041;BME280;7095;51.388;6.196;2023-03-22T05:30:57;60177.59;;;-145.32;100.00
14041;BME280;7095;51.388;6.196;2023-03-22T05:33:38;59938.56;;;-145.32;100.00
14041;BME280;7095;51.388;6.196;2023-03-22T05:36:10;59884.81;;;-145.32;100.00
14041;BME280;7095;51.388;6.196;2023-03-22T05:38:53;59747.38;;;-145.32;100.00
14041;BME280;7095;51.388;6.196;2023-03-22T05:41:22;59769.28;;;-145.32;100.00
14041;BME280;7095;51.388;6.196;2023-03-22T05:43:51;59544.22;;;-145.32;100.00
14041;BME280;7095;51.388;6.196;2023-03-22T05:46:21;59502.41;;;-145.32;100.00
14041;BME280;7095;51.388;6.196;2023-03-22T05:49:09;59450.63;;;-145.32;100.00
14041;BME280;7095;51.388;6.196;2023-03-22T05:51:39;59508.38;;;-145.32;100.00
14041;BME280;7095;51.388;6.196;2023-03-22T05:54:10;59506.38;;;-145.32;100.00
14041;BME280;7095;51.388;6.196;2023-03-22T05:56:48;59456.59;;;-145.32;100.00
14041;BME280;7095;51.388;6.196;2023-03-22T05:59:23;59428.72;;;-145.32;100.00
14041;BME280;7095;51.388;6.196;2023-03-22T06:01:53;59454.59;;;-145.32;100.00
14041;BME280;7095;51.388;6.196;2023-03-22T06:04:23;59301.25;;;-145.32;100.00
14041;BME280;7095;51.388;6.196;2023-03-22T06:06:58;59261.41;;;-145.32;100.00
14041;BME280;7095;51.388;6.196;2023-03-22T06:09:56;59177.78;;;-145.32;100.00
14041;BME280;7095;51.388;6.196;2023-03-22T06:12:26;59046.34;;;-145.32;100.00
14041;BME280;7095;51.388;6.196;2023-03-22T06:15:09;58942.81;;;-145.32;100.00
14041;BME280;7095;51.388;6.196;2023-03-22T06:17:49;58873.13;;;-145.32;100.00
14041;BME280;7095;51.388;6.196;2023-03-22T06:20:22;58749.66;;;-145.32;100.00
14041;BME280;7095;51.388;6.196;2023-03-22T06:22:58;58598.34;;;-145.32;100.00
14041;BME280;7095;51.388;6.196;2023-03-22T06:25:27;58524.66;;;-145.32;100.00
14041;BME280;7095;51.388;6.196;2023-03-22T06:27:55;58301.69;;;-145.32;100.00
14041;BME280;7095;51.388;6.196;2023-03-22T06:30:24;58206.13;;;-145.32;100.00
14041;BME280;7095;51.388;6.196;2023-03-22T06:33:24;58066.75;;;-145.32;100.00
14041;BME280;7095;51.388;6.196;2023-03-22T06:35:58;57927.41;;;-145.32;100.00
14041;BME280;7095;51.388;6.196;2023-03-22T06:38:48;57692.53;;;-145.32;100.00
14041;BME280;7095;51.388;6.196;2023-03-22T06:41:16;57676.59;;;-145.32;100.00
14041;BME280;7095;51.388;6.196;2023-03-22T06:43:45;57608.94;;;-145.32;100.00
14041;BME280;7095;51.388;6.196;2023-03-22T06:46:28;57421.81;;;-145.32;100.00
14041;BME280;7095;51.388;6.196;2023-03-22T06:49:08;57252.66;;;-145.32;100.00
14041;BME280;7095;51.388;6.196;2023-03-22T06:51:37;57246.69;;;-145.32;100.00
14041;BME280;7095;51.388;6.196;2023-03-22T06:54:06;57103.38;;;-145.32;100.00
14041;BME280;7095;51.388;6.196;2023-03-22T06:56:35;57135.22;;;-145.32;100.00
14041;BME280;7095;51.388;6.196;2023-03-22T06:59:03;57031.75;;;-145.32;100.00
14041;BME280;7095;51.388;6.196;2023-03-22T07:01:32;56968.06;;;-145.32;100.00
14041;BME280;7095;51.388;6.196;2023-03-22T07:04:01;56739.19;;;-145.32;100.00
14041;BME280;7095;51.388;6.196;2023-03-22T07:06:31;56482.50;;;-145.32;100.00
14041;BME280;7095;51.388;6.196;2023-03-22T07:09:00;56418.84;;;-145.32;100.00
14041;BME280;7095;51.388;6.196;2023-03-22T07:11:32;56211.91;;;-145.32;100.00
14041;BME280;7095;51.388;6.196;2023-03-22T07:14:02;55885.63;;;-145.32;100.00
14041;BME280;7095;51.388;6.196;2023-03-22T07:17:01;55825.94;;;-145.32;100.00
14041;BME280;7095;51.388;6.196;2023-03-22T07:19:30;55738.41;;;-145.32;100.00
14041;BME280;7095;51.388;6.196;2023-03-22T07:22:04;55632.97;;;-145.32;100.00
14041;BME280;7095;51.388;6.196;2023-03-22T07:24:34;55491.72;;;-145.32;100.00
14041;BME280;7095;51.388;6.196;2023-03-22T07:27:16;55424.09;;;-145.32;100.00
14041;BME280;7095;51.388;6.196;2023-03-22T07:29:45;55438.03;;;-145.32;100.00
14041;BME280;7095;51.388;6.196;2023-03-22T07:32:16;55463.88;;;-145.32;100.00
14041;BME280;7095;51.388;6.196;2023-03-22T07:35:03;55467.84;;;-145.32;100.00
14041;BME280;7095;51.388;6.196;2023-03-22T07:37:33;55296.78;;;-145.32;100.00
14041;BME280;7095;51.388;6.196;2023-03-22T07:40:08;55282.88;;;-145.32;100.00
14041;BME280;7095;51.388;6.196;2023-03-22T07:42:36;55205.28;;;-145.32;100.00
14041;BME280;7095;51.388;6.196;2023-03-22T07:45:37;55083.97;;;-145.32;100.00
14041;BME280;7095;51.388;6.196;2023-03-22T07:48:29;55129.69;;;-145.32;100.00
14041;BME280;7095;51.388;6.196;2023-03-22T07:51:21;55050.16;;;-145.32;100.00
14041;BME280;7095;51.388;6.196;2023-03-22T07:53:52;54912.91;;;-145.32;100.00
14041;BME280;7095;51.388;6.196;2023-03-22T07:56:21;54845.28;;;-145.32;100.00
14041;BME280;7095;51.388;6.196;2023-03-22T07:58:49;54831.38;;;-145.32;100.00
14041;BME280;7095;51.388;6.196;2023-03-22T08:01:18;54853.25;;;-145.32;100.00
14041;BME280;7095;51.388;6.196;2023-03-22T08:03:57;54873.13;;;-145.32;100.00
14041;BME280;7095;51.388;6.196;2023-03-22T08:06:35;54859.22;;;-145.32;100.00
14041;BME280;7095;51.388;6.196;2023-03-22T08:09:06;54855.22;;;-145.32;100.00
14041;BME280;7095;51.388;6.196;2023-03-22T08:11:35;54855.22;;;-145.32;100.00
14041;BME280;7095;51.388;6.196;2023-03-22T08:14:04;54869.16;;;-145.32;100.00
14041;BME280;7095;51.388;6.196;2023-03-22T08:16:36;54819.44;;;-145.32;100.00
14041;BME280;7095;51.388;6.196;2023-03-22T08:19:05;54787.63;;;-145.32;100.00
14041;BME280;7095;51.388;6.196;2023-03-22T08:21:36;54795.56;;;-145.32;100.00
14041;BME280;7095;51.388;6.196;2023-03-22T08:24:10;54720.00;;;-145.32;100.00
14041;BME280;7095;51.388;6.196;2023-03-22T08:26:48;54694.13;;;-145.32;100.00
14041;BME280;7095;51.388;6.196;2023-03-22T08:29:27;54596.69;;;-145.32;100.00
14041;BME280;7095;51.388;6.196;2023-03-22T08:31:56;54562.88;;;-145.32;100.00
14041;BME280;7095;51.388;6.196;2023-03-22T08:34:28;54537.03;;;-145.32;100.00
14041;BME280;7095;51.388;6.196;2023-03-22T08:36:57;54497.25;;;-145.32;100.00
14041;BME280;7095;51.388;6.196;2023-03-22T08:39:27;54437.59;;;-145.32;100.00
14041;BME280;7095;51.388;6.196;2023-03-22T08:42:14;54389.88;;;-145.32;100.00
14041;BME280;7095;51.388;6.196;2023-03-22T08:44:43;54278.50;;;-145.32;100.00
14041;BME280;7095;51.388;6.196;2023-03-22T08:47:12;54222.84;;;-145.32;100.00
14041;BME280;7095;51.388;6.196;2023-03-22T08:49:42;54196.97;;;-145.32;100.00
14041;BME280;7095;51.388;6.196;2023-03-22T08:52:21;54147.28;;;-145.32;100.00
14041;BME280;7095;51.388;6.196;2023-03-22T08:55:02;54169.16;;;-145.32;100.00
14041;BME280;7095;51.388;6.196;2023-03-22T08:58:10;54155.22;;;-145.32;100.00
14041;BME280;7095;51.388;6.196;2023-03-22T09:00:55;54141.31;;;-145.32;100.00
14041;BME280;7095;51.388;6.196;2023-03-22T09:03:42;54093.59;;;-145.32;100.00
14041;BME280;7095;51.388;6.196;2023-03-22T09:06:11;54051.81;;;-145.32;100.00
14041;BME280;7095;51.388;6.196;2023-03-22T09:08:41;54071.72;;;-145.32;100.00
14041;BME280;7095;51.388;6.196;2023-03-22T09:11:15;54065.75;;;-145.32;100.00
14041;BME280;7095;51.388;6.196;2023-03-22T09:13:46;54039.91;;;-145.32;100.00
14041;BME280;7095;51.388;6.196;2023-03-22T09:16:15;54029.97;;;-145.32;100.00
14041;BME280;7095;51.388;6.196;2023-03-22T09:18:45;54004.09;;;-145.32;100.00
14041;BME280;7095;51.388;6.196;2023-03-22T09:21:17;53970.31;;;-145.32;100.00
14041;BME280;7095;51.388;6.196;2023-03-22T09:23:56;53996.16;;;-145.32;100.00
14041;BME280;7095;51.388;6.196;2023-03-22T09:26:44;53964.34;;;-145.32;100.00
14041;BME280;7095;51.388;6.196;2023-03-22T09:29:16;53994.16;;;-145.32;100.00
14041;BME280;7095;51.388;6.196;2023-03-22T09:31:46;53960.38;;;-145.32;100.00
14041;BME280;7095;51.388;6.196;2023-03-22T09:34:26;53966.34;;;-145.32;100.00
14041;BME280;7095;51.388;6.196;2023-03-22T09:36:56;53912.66;;;-145.32;100.00
14041;BME280;7095;51.388;6.196;2023-03-22T09:39:45;53904.69;;;-145.32;100.00
14041;BME280;7095;51.388;6.196;2023-03-22T09:42:28;53884.81;;;-145.32;100.00
14041;BME280;7095;51.388;6.196;2023-03-22T09:45:02;53860.94;;;-145.32;100.00
14041;BME280;7095;51.388;6.196;2023-03-22T09:47:33;53858.97;;;-145.32;100.00
14041;BME280;7095;51.388;6.196;2023-03-22T09:50:19;53872.88;;;-145.32;100.00
14041;BME280;7095;51.388;6.196;2023-03-22T09:52:48;53866.91;;;-145.32;100.00
14041;BME280;7095;51.388;6.196;2023-03-22T09:55:19;53866.91;;;-145.32;100.00
14041;BME280;7095;51.388;6.196;2023-03-22T09:57:56;53868.91;;;-145.32;100.00
14041;BME280;7095;51.388;6.196;2023-03-22T10:00:35;53853.00;;;-145.32;100.00
14041;BME280;7095;51.388;6.196;2023-03-22T10:03:15;53849.03;;;-145.32;100.00
14041;BME280;7095;51.388;6.196;2023-03-22T10:05:49;53853.00;;;-145.32;100.00
14041;BME280;7095;51.388;6.196;2023-03-22T10:08:30;53845.03;;;-145.32;100.00
14041;BME280;7095;51.388;6.196;2023-03-22T10:11:01;53829.13;;;-145.32;100.00
14041;BME280;7095;51.388;6.196;2023-03-22T10:13:35;53829.13;;;-145.32;100.00
14041;BME280;7095;51.388;6.196;2023-03-22T10:16:11;53799.31;;;-145.32;100.00
14041;BME280;7095;51.388;6.196;2023-03-22T10:18:42;53771.47;;;-145.32;100.00
14041;BME280;7095;51.388;6.196;2023-03-22T10:21:14;53813.22;;;-145.32;100.00
14041;BME280;7095;51.388;6.196;2023-03-22T10:23:46;53797.31;;;-145.32;100.00
14041;BME280;7095;51.388;6.196;2023-03-22T10:26:20;53807.25;;;-145.32;100.00
14041;BME280;7095;51.388;6.196;2023-03-22T10:28:56;53797.31;;;-145.32;100.00
14041;BME280;7095;51.388;6.196;2023-03-22T10:31:30;53777.44;;;-145.32;100.00
14041;BME280;7095;51.388;6.196;2023-03-22T10:34:02;53791.34;;;-145.32;100.00
14041;BME280;7095;51.388;6.196;2023-03-22T10:36:34;53777.44;;;-145.32;100.00
14041;BME280;7095;51.388;6.196;2023-03-22T10:39:12;53805.28;;;-145.32;100.00
14041;BME280;7095;51.388;6.196;2023-03-22T10:41:45;53763.53;;;-145.32;100.00
14041;BME280;7095;51.388;6.196;2023-03-22T10:44:17;53783.41;;;-145.32;100.00
14041;BME280;7095;51.388;6.196;2023-03-22T10:46:47;53769.50;;;-145.32;100.00
14041;BME280;7095;51.388;6.196;2023-03-22T10:49:22;53781.41;;;-145.32;100.00
14041;BME280;7095;51.388;6.196;2023-03-22T10:51:56;53755.56;;;-145.32;100.00
14041;BME280;7095;51.388;6.196;2023-03-22T10:54:27;53797.31;;;-145.32;100.00
14041;BME280;7095;51.388;6.196;2023-03-22T10:56:56;53765.50;;;-145.32;100.00
14041;BME280;7095;51.388;6.196;2023-03-22T10:59:45;53777.44;;;-145.32;100.00
14041;BME280;7095;51.388;6.196;2023-03-22T11:02:20;53765.50;;;-145.32;100.00
14041;BME280;7095;51.388;6.196;2023-03-22T11:04:56;53789.38;;;-145.32;100.00
14041;BME280;7095;51.388;6.196;2023-03-22T11:07:30;53765.50;;;-145.32;100.00
14041;BME280;7095;51.388;6.196;2023-03-22T11:10:11;53773.47;;;-145.32;100.00
14041;BME280;7095;51.388;6.196;2023-03-22T11:12:42;53797.31;;;-145.32;100.00
14041;BME280;7095;51.388;6.196;2023-03-22T11:15:22;53821.19;;;-145.32;100.00
14041;BME280;7095;51.388;6.196;2023-03-22T11:17:56;53813.22;;;-145.32;100.00
14041;BME280;7095;51.388;6.196;2023-03-22T11:20:26;53821.19;;;-145.32;100.00
14041;BME280;7095;51.388;6.196;2023-03-22T11:23:00;53813.22;;;-145.32;100.00
14041;BME280;7095;51.388;6.196;2023-03-22T11:25:31;53833.13;;;-145.32;100.00
14041;BME280;7095;51.388;6.196;2023-03-22T11:28:07;53835.09;;;-145.32;100.00
14041;BME280;7095;51.388;6.196;2023-03-22T11:30:38;53845.03;;;-145.32;100.00
14041;BME280;7095;51.388;6.196;2023-03-22T11:33:16;53833.13;;;-145.32;100.00
14041;BME280;7095;51.388;6.196;2023-03-22T11:35:46;53856.97;;;-145.32;100.00
14041;BME280;7095;51.388;6.196;2023-03-22T11:38:24;53837.09;;;-145.32;100.00
14041;BME280;7095;51.388;6.196;2023-03-22T11:40:58;53823.16;;;-145.32;100.00
14041;BME280;7095;51.388;6.196;2023-03-22T11:43:32;53835.09;;;-145.32;100.00
14041;BME280;7095;51.388;6.196;2023-03-22T11:46:04;53833.13;;;-145.32;100.00
14041;BME280;7095;51.388;6.196;2023-03-22T11:48:35;53821.19;;;-145.32;100.00
14041;BME280;7095;51.388;6.196;2023-03-22T11:51:07;53805.28;;;-145.32;100.00
14041;BME280;7095;51.388;6.196;2023-03-22T11:53:38;53849.03;;;-145.32;100.00
14041;BME280;7095;51.388;6.196;2023-03-22T11:56:10;53803.28;;;-145.32;100.00
14041;BME280;7095;51.388;6.196;2023-03-22T11:58:54;53849.03;;;-145.32;100.00
14041;BME280;7095;51.388;6.196;2023-03-22T12:01:33;53837.09;;;-145.32;100.00
14041;BME280;7095;51.388;6.196;2023-03-22T12:04:06;53769.50;;;-145.32;100.00
14041;BME280;7095;51.388;6.196;2023-03-22T12:06:39;53809.25;;;-145.32;100.00
14041;BME280;7095;51.388;6.196;2023-03-22T12:09:17;53801.31;;;-145.32;100.00
14041;BME280;7095;51.388;6.196;2023-03-22T12:11:50;53793.34;;;-145.32;100.00
14041;BME280;7095;51.388;6.196;2023-03-22T12:14:22;53813.22;;;-145.32;100.00
14041;BME280;7095;51.388;6.196;2023-03-22T12:16:56;53817.22;;;-145.32;100.00
14041;BME280;7095;51.388;6.196;2023-03-22T12:19:40;53783.41;;;-145.32;100.00
14041;BME280;7095;51.388;6.196;2023-03-22T12:22:13;53771.47;;;-145.32;100.00
14041;BME280;7095;51.388;6.196;2023-03-22T12:24:44;53793.34;;;-145.32;100.00
14041;BME280;7095;51.388;6.196;2023-03-22T12:27:16;53769.50;;;-145.32;100.00
14041;BME280;7095;51.388;6.196;2023-03-22T12:29:52;53769.50;;;-145.32;100.00
14041;BME280;7095;51.388;6.196;2023-03-22T12:32:25;53809.25;;;-145.32;100.00
14041;BME280;7095;51.388;6.196;2023-03-22T12:34:56;53825.16;;;-145.32;100.00
14041;BME280;7095;51.388;6.196;2023-03-22T12:37:44;53813.22;;;-145.32;100.00
14041;BME280;7095;51.388;6.196;2023-03-22T12:40:20;53793.34;;;-145.32;100.00
14041;BME280;7095;51.388;6.196;2023-03-22T12:43:01;53793.34;;;-145.32;100.00
14041;BME280;7095;51.388;6.196;2023-03-22T12:45:37;53785.41;;;-145.32;100.00
14041;BME280;7095;51.388;6.196;2023-03-22T12:48:13;53803.28;;;-145.32;100.00
14041;BME280;7095;51.388;6.196;2023-03-22T12:50:46;53797.31;;;-145.32;100.00
14041;BME280;7095;51.388;6.196;2023-03-22T12:53:17;53823.16;;;-145.32;100.00
14041;BME280;7095;51.388;6.196;2023-03-22T12:55:48;53837.09;;;-145.32;100.00
14041;BME280;7095;51.388;6.196;2023-03-22T12:58:19;53811.25;;;-145.32;100.00
14041;BME280;7095;51.388;6.196;2023-03-22T13:00:51;53825.16;;;-145.32;100.00
14041;BME280;7095;51.388;6.196;2023-03-22T13:03:25;53845.03;;;-145.32;100.00
14041;BME280;7095;51.388;6.196;2023-03-22T13:06:01;53837.09;;;-145.32;100.00
14041;BME280;7095;51.388;6.196;2023-03-22T13:09:00;53825.16;;;-145.32;100.00
14041;BME280;7095;51.388;6.196;2023-03-22T13:11:29;53880.84;;;-145.32;100.00
14041;BME280;7095;51.388;6.196;2023-03-22T13:13:58;53866.91;;;-145.32;100.00
14041;BME280;7095;51.388;6.196;2023-03-22T13:16:55;53856.97;;;-145.32;100.00
14041;BME280;7095;51.388;6.196;2023-03-22T13:19:33;53860.94;;;-145.32;100.00
14041;BME280;7095;51.388;6.196;2023-03-22T13:22:20;53880.84;;;-145.32;100.00
14041;BME280;7095;51.388;6.196;2023-03-22T13:24:58;53856.97;;;-145.32;100.00